sensor_id;sensor_type;location;lat;lon;timestamp;temperature;humidity
36374;DHT22;22399;51.346;12.372;2024-03-08T00:02:18;1.00;98.00
36374;DHT22;22399;51.346;12.372;2024-03-08T00:04:46;1.00;98.10
36374;DHT22;22399;51.346;12.372;2024-03-08T00:07:13;1.00;98.10
36374;DHT22;22399;51.346;12.372;2024-03-08T00:09:40;0.90;98.10
36374;DHT22;22399;51.346;12.372;2024-03-08T00:12:07;0.90;98.20
36374;DHT22;22399;51.346;12.372;2024-03-08T00:14:34;0.80;98.20
36374;DHT22;22399;51.346;12.372;2024-03-08T00:17:04;0.90;98.40
36374;DHT22;22399;51.346;12.372;2024-03-08T00:19:31;0.90;98.40
36374;DHT22;22399;51.346;12.372;2024-03-08T00:21:58;0.90;98.40
36374;DHT22;22399;51.346;12.372;2024-03-08T00:24:25;0.80;98.40
36374;DHT22;22399;51.346;12.372;2024-03-08T00:26:52;0.80;98.50
36374;DHT22;22399;51.346;12.372;2024-03-08T00:29:22;0.80;98.60
36374;DHT22;22399;51.346;12.372;2024-03-08T00:31:49;0.80;98.60
36374;DHT22;22399;51.346;12.372;2024-03-08T00:34:16;0.80;98.70
36374;DHT22;22399;51.346;12.372;2024-03-08T00:36:42;0.80;98.70
36374;DHT22;22399;51.346;12.372;2024-03-08T00:39:11;0.80;98.70
36374;DHT22;22399;51.346;12.372;2024-03-08T00:41:38;0.80;98.80
36374;DHT22;22399;51.346;12.372;2024-03-08T00:44:05;0.80;98.80
36374;DHT22;22399;51.346;12.372;2024-03-08T00:46:31;0.70;98.70
36374;DHT22;22399;51.346;12.372;2024-03-08T00:48:58;0.70;98.80
36374;DHT22;22399;51.346;12.372;2024-03-08T00:51:25;0.70;99.10
36374;DHT22;22399;51.346;12.372;2024-03-08T00:53:52;0.70;99.10
36374;DHT22;22399;51.346;12.372;2024-03-08T00:56:20;0.60;99.10
36374;DHT22;22399;51.346;12.372;2024-03-08T00:58:46;0.60;99.20
36374;DHT22;22399;51.346;12.372;2024-03-08T01:01:14;0.60;99.60
36374;DHT22;22399;51.346;12.372;2024-03-08T01:03:43;0.70;99.70
36374;DHT22;22399;51.346;12.372;2024-03-08T01:06:09;0.70;99.40
36374;DHT22;22399;51.346;12.372;2024-03-08T01:08:37;0.60;99.30
36374;DHT22;22399;51.346;12.372;2024-03-08T01:11:04;0.60;99.50
36374;DHT22;22399;51.346;12.372;2024-03-08T01:13:32;0.60;99.90
36374;DHT22;22399;51.346;12.372;2024-03-08T01:15:58;0.70;99.70
36374;DHT22;22399;51.346;12.372;2024-03-08T01:18:25;0.70;99.70
36374;DHT22;22399;51.346;12.372;2024-03-08T01:20:52;0.70;99.80
36374;DHT22;22399;51.346;12.372;2024-03-08T01:23:18;0.70;99.90
36374;DHT22;22399;51.346;12.372;2024-03-08T01:25:46;0.70;99.90
36374;DHT22;22399;51.346;12.372;2024-03-08T01:28:16;0.70;99.90
36374;DHT22;22399;51.346;12.372;2024-03-08T01:30:45;0.70;99.90
36374;DHT22;22399;51.346;12.372;2024-03-08T01:33:13;0.70;99.90
36374;DHT22;22399;51.346;12.372;2024-03-08T01:35:41;0.70;99.90
36374;DHT22;22399;51.346;12.372;2024-03-08T01:38:10;0.70;99.90
36374;DHT22;22399;51.346;12.372;2024-03-08T01:40:37;0.60;99.90
36374;DHT22;22399;51.346;12.372;2024-03-08T01:43:21;0.60;99.90
36374;DHT22;22399;51.346;12.372;2024-03-08T01:45:51;0.60;99.90
36374;DHT22;22399;51.346;12.372;2024-03-08T01:48:20;0.50;99.90
36374;DHT22;22399;51.346;12.372;2024-03-08T01:50:52;0.50;99.90
36374;DHT22;22399;51.346;12.372;2024-03-08T01:53:22;0.50;99.90
36374;DHT22;22399;51.346;12.372;2024-03-08T01:55:56;0.40;99.90
36374;DHT22;22399;51.346;12.372;2024-03-08T01:58:24;0.50;99.90
36374;DHT22;22399;51.346;12.372;2024-03-08T02:00:57;0.50;99.90
36374;DHT22;22399;51.346;12.372;2024-03-08T02:03:25;0.40;99.90
36374;DHT22;22399;51.346;12.372;2024-03-08T02:05:55;0.50;99.90
36374;DHT22;22399;51.346;12.372;2024-03-08T02:08:23;0.40;99.90
36374;DHT22;22399;51.346;12.372;2024-03-08T02:10:51;0.40;99.90
36374;DHT22;22399;51.346;12.372;2024-03-08T02:13:19;0.40;99.90
36374;DHT22;22399;51.346;12.372;2024-03-08T02:15:56;0.40;99.90
36374;DHT22;22399;51.346;12.372;2024-03-08T02:18:27;0.40;99.90
36374;DHT22;22399;51.346;12.372;2024-03-08T02:20:58;0.40;99.90
36374;DHT22;22399;51.346;12.372;2024-03-08T02:23:27;0.40;99.90
36374;DHT22;22399;51.346;12.372;2024-03-08T02:25:56;0.40;99.90
36374;DHT22;22399;51.346;12.372;2024-03-08T02:28:25;0.40;99.90
36374;DHT22;22399;51.346;12.372;2024-03-08T02:30:53;0.40;99.90
36374;DHT22;22399;51.346;12.372;2024-03-08T02:33:23;0.40;99.90
36374;DHT22;22399;51.346;12.372;2024-03-08T02:35:52;0.50;99.90
36374;DHT22;22399;51.346;12.372;2024-03-08T02:38:23;0.50;99.90
36374;DHT22;22399;51.346;12.372;2024-03-08T02:40:53;0.50;99.90
36374;DHT22;22399;51.346;12.372;2024-03-08T02:43:22;0.50;99.90
36374;DHT22;22399;51.346;12.372;2024-03-08T02:45:51;0.50;99.90
36374;DHT22;22399;51.346;12.372;2024-03-08T02:48:20;0.50;99.90
36374;DHT22;22399;51.346;12.372;2024-03-08T02:50:49;0.40;99.90
36374;DHT22;22399;51.346;12.372;2024-03-08T02:53:18;0.50;99.90
36374;DHT22;22399;51.346;12.372;2024-03-08T02:55:48;0.40;99.90
36374;DHT22;22399;51.346;12.372;2024-03-08T02:58:16;0.40;99.90
36374;DHT22;22399;51.346;12.372;2024-03-08T03:00:45;0.50;99.90
36374;DHT22;22399;51.346;12.372;2024-03-08T03:03:13;0.50;99.90
36374;DHT22;22399;51.346;12.372;2024-03-08T03:05:41;0.40;99.90
36374;DHT22;22399;51.346;12.372;2024-03-08T03:08:15;0.40;99.90
36374;DHT22;22399;51.346;12.372;2024-03-08T03:10:44;0.40;99.90
36374;DHT22;22399;51.346;12.372;2024-03-08T03:13:14;0.40;99.90
36374;DHT22;22399;51.346;12.372;2024-03-08T03:15:43;0.40;99.90
36374;DHT22;22399;51.346;12.372;2024-03-08T03:18:11;0.40;99.90
36374;DHT22;22399;51.346;12.372;2024-03-08T03:20:39;0.40;99.90
36374;DHT22;22399;51.346;12.372;2024-03-08T03:23:09;0.40;99.90
36374;DHT22;22399;51.346;12.372;2024-03-08T03:25:41;0.40;99.90
36374;DHT22;22399;51.346;12.372;2024-03-08T03:28:09;0.40;99.90
36374;DHT22;22399;51.346;12.372;2024-03-08T03:30:40;0.30;99.90
36374;DHT22;22399;51.346;12.372;2024-03-08T03:33:08;0.30;99.90
36374;DHT22;22399;51.346;12.372;2024-03-08T03:35:37;0.30;99.90
36374;DHT22;22399;51.346;12.372;2024-03-08T03:38:06;0.20;99.90
36374;DHT22;22399;51.346;12.372;2024-03-08T03:40:37;0.20;99.90
36374;DHT22;22399;51.346;12.372;2024-03-08T03:43:06;0.20;99.90
36374;DHT22;22399;51.346;12.372;2024-03-08T03:45:40;0.10;99.90
36374;DHT22;22399;51.346;12.372;2024-03-08T03:48:09;0.10;99.90
36374;DHT22;22399;51.346;12.372;2024-03-08T03:50:38;0.10;99.90
36374;DHT22;22399;51.346;12.372;2024-03-08T03:53:08;0.10;99.90
36374;DHT22;22399;51.346;12.372;2024-03-08T03:55:38;0.10;99.90
36374;DHT22;22399;51.346;12.372;2024-03-08T03:58:08;0.10;99.90
36374;DHT22;22399;51.346;12.372;2024-03-08T04:00:37;0.00;99.90
36374;DHT22;22399;51.346;12.372;2024-03-08T04:03:07;0.00;99.90
36374;DHT22;22399;51.346;12.372;2024-03-08T04:05:36;0.00;99.90
36374;DHT22;22399;51.346;12.372;2024-03-08T04:08:05;0.00;99.90
36374;DHT22;22399;51.346;12.372;2024-03-08T04:10:33;0.00;99.90
36374;DHT22;22399;51.346;12.372;2024-03-08T04:13:01;0.00;99.90
36374;DHT22;22399;51.346;12.372;2024-03-08T04:15:30;0.00;99.90
36374;DHT22;22399;51.346;12.372;2024-03-08T04:17:58;0.00;99.90
36374;DHT22;22399;51.346;12.372;2024-03-08T04:20:29;0.00;99.90
36374;DHT22;22399;51.346;12.372;2024-03-08T04:22:57;0.00;99.90
36374;DHT22;22399;51.346;12.372;2024-03-08T04:25:25;0.00;99.90
36374;DHT22;22399;51.346;12.372;2024-03-08T04:27:54;0.00;99.90
36374;DHT22;22399;51.346;12.372;2024-03-08T04:30:22;-0.10;99.90
36374;DHT22;22399;51.346;12.372;2024-03-08T04:32:50;-0.10;99.90
36374;DHT22;22399;51.346;12.372;2024-03-08T04:35:19;-0.10;99.90
36374;DHT22;22399;51.346;12.372;2024-03-08T04:37:49;-0.10;99.90
36374;DHT22;22399;51.346;12.372;2024-03-08T04:40:17;-0.10;99.90
36374;DHT22;22399;51.346;12.372;2024-03-08T04:42:45;-0.10;99.90
36374;DHT22;22399;51.346;12.372;2024-03-08T04:45:17;-0.10;99.90
36374;DHT22;22399;51.346;12.372;2024-03-08T04:47:45;-0.10;99.90
36374;DHT22;22399;51.346;12.372;2024-03-08T04:50:13;-0.10;99.90
36374;DHT22;22399;51.346;12.372;2024-03-08T04:52:42;-0.10;99.90
36374;DHT22;22399;51.346;12.372;2024-03-08T04:55:11;-0.10;99.90
36374;DHT22;22399;51.346;12.372;2024-03-08T04:57:39;-0.10;99.90
36374;DHT22;22399;51.346;12.372;2024-03-08T05:00:09;-0.10;99.90
36374;DHT22;22399;51.346;12.372;2024-03-08T05:02:38;-0.10;99.90
36374;DHT22;22399;51.346;12.372;2024-03-08T05:05:07;-0.10;99.90
36374;DHT22;22399;51.346;12.372;2024-03-08T05:07:35;-0.10;99.90
36374;DHT22;22399;51.346;12.372;2024-03-08T05:10:05;-0.10;99.90
36374;DHT22;22399;51.346;12.372;2024-03-08T05:12:35;-0.10;99.90
36374;DHT22;22399;51.346;12.372;2024-03-08T05:15:04;-0.20;99.90
36374;DHT22;22399;51.346;12.372;2024-03-08T05:17:32;-0.20;99.90
36374;DHT22;22399;51.346;12.372;2024-03-08T05:20:00;-0.20;99.90
36374;DHT22;22399;51.346;12.372;2024-03-08T05:22:29;-0.20;99.90
36374;DHT22;22399;51.346;12.372;2024-03-08T05:24:57;-0.20;99.90
36374;DHT22;22399;51.346;12.372;2024-03-08T05:27:25;-0.20;99.90
36374;DHT22;22399;51.346;12.372;2024-03-08T05:29:56;-0.20;99.90
36374;DHT22;22399;51.346;12.372;2024-03-08T05:32:24;-0.20;99.90
36374;DHT22;22399;51.346;12.372;2024-03-08T05:34:57;-0.30;99.90
36374;DHT22;22399;51.346;12.372;2024-03-08T05:37:25;-0.20;99.90
36374;DHT22;22399;51.346;12.372;2024-03-08T05:39:53;-0.20;99.90
36374;DHT22;22399;51.346;12.372;2024-03-08T05:42:21;-0.20;99.90
36374;DHT22;22399;51.346;12.372;2024-03-08T05:44:49;-0.20;99.90
36374;DHT22;22399;51.346;12.372;2024-03-08T05:47:19;-0.20;99.90
36374;DHT22;22399;51.346;12.372;2024-03-08T05:49:47;-0.20;99.90
36374;DHT22;22399;51.346;12.372;2024-03-08T05:52:15;-0.10;99.90
36374;DHT22;22399;51.346;12.372;2024-03-08T05:54:43;-0.10;99.90
36374;DHT22;22399;51.346;12.372;2024-03-08T05:57:12;-0.10;99.90
36374;DHT22;22399;51.346;12.372;2024-03-08T05:59:40;0.00;99.90
36374;DHT22;22399;51.346;12.372;2024-03-08T06:02:09;0.00;99.90
36374;DHT22;22399;51.346;12.372;2024-03-08T06:04:38;0.00;99.90
36374;DHT22;22399;51.346;12.372;2024-03-08T06:07:09;0.00;99.90
36374;DHT22;22399;51.346;12.372;2024-03-08T06:09:39;0.00;99.90
36374;DHT22;22399;51.346;12.372;2024-03-08T06:12:07;0.00;99.90
36374;DHT22;22399;51.346;12.372;2024-03-08T06:14:38;0.10;99.90
36374;DHT22;22399;51.346;12.372;2024-03-08T06:17:06;0.10;99.90
36374;DHT22;22399;51.346;12.372;2024-03-08T06:19:34;0.10;99.90
36374;DHT22;22399;51.346;12.372;2024-03-08T06:22:04;0.20;99.90
36374;DHT22;22399;51.346;12.372;2024-03-08T06:24:33;0.20;99.90
36374;DHT22;22399;51.346;12.372;2024-03-08T06:27:03;0.30;99.90
36374;DHT22;22399;51.346;12.372;2024-03-08T06:29:31;0.40;99.90
36374;DHT22;22399;51.346;12.372;2024-03-08T06:31:59;0.40;99.90
36374;DHT22;22399;51.346;12.372;2024-03-08T06:34:27;0.50;99.90
36374;DHT22;22399;51.346;12.372;2024-03-08T06:36:55;0.50;99.90
36374;DHT22;22399;51.346;12.372;2024-03-08T06:39:29;0.60;99.90
36374;DHT22;22399;51.346;12.372;2024-03-08T06:41:58;0.70;99.90
36374;DHT22;22399;51.346;12.372;2024-03-08T06:44:26;0.80;99.90
36374;DHT22;22399;51.346;12.372;2024-03-08T06:46:55;0.90;99.90
36374;DHT22;22399;51.346;12.372;2024-03-08T06:49:26;1.00;99.90
36374;DHT22;22399;51.346;12.372;2024-03-08T06:51:54;1.10;99.90
36374;DHT22;22399;51.346;12.372;2024-03-08T06:54:24;1.30;99.90
36374;DHT22;22399;51.346;12.372;2024-03-08T06:56:53;1.40;99.90
36374;DHT22;22399;51.346;12.372;2024-03-08T06:59:22;1.50;99.90
36374;DHT22;22399;51.346;12.372;2024-03-08T07:01:50;1.60;99.90
36374;DHT22;22399;51.346;12.372;2024-03-08T07:04:21;1.90;99.90
36374;DHT22;22399;51.346;12.372;2024-03-08T07:06:53;2.30;99.90
36374;DHT22;22399;51.346;12.372;2024-03-08T07:09:21;2.70;99.90
36374;DHT22;22399;51.346;12.372;2024-03-08T07:11:49;3.00;99.90
36374;DHT22;22399;51.346;12.372;2024-03-08T07:14:23;3.30;99.90
36374;DHT22;22399;51.346;12.372;2024-03-08T07:16:52;3.30;99.90
36374;DHT22;22399;51.346;12.372;2024-03-08T07:19:20;3.50;99.90
36374;DHT22;22399;51.346;12.372;2024-03-08T07:21:48;3.80;99.90
36374;DHT22;22399;51.346;12.372;2024-03-08T07:24:17;4.20;99.90
36374;DHT22;22399;51.346;12.372;2024-03-08T07:27:05;4.40;99.90
36374;DHT22;22399;51.346;12.372;2024-03-08T07:29:35;4.40;99.90
36374;DHT22;22399;51.346;12.372;2024-03-08T07:32:03;4.20;99.90
36374;DHT22;22399;51.346;12.372;2024-03-08T07:34:44;4.20;99.90
36374;DHT22;22399;51.346;12.372;2024-03-08T07:37:13;4.30;99.90
36374;DHT22;22399;51.346;12.372;2024-03-08T07:39:41;4.50;99.90
36374;DHT22;22399;51.346;12.372;2024-03-08T07:42:10;4.50;99.90
36374;DHT22;22399;51.346;12.372;2024-03-08T07:44:42;4.70;99.90
36374;DHT22;22399;51.346;12.372;2024-03-08T07:47:10;4.80;99.90
36374;DHT22;22399;51.346;12.372;2024-03-08T07:49:39;4.80;99.90
36374;DHT22;22399;51.346;12.372;2024-03-08T07:52:07;4.90;99.90
36374;DHT22;22399;51.346;12.372;2024-03-08T07:54:35;4.90;99.90
36374;DHT22;22399;51.346;12.372;2024-03-08T07:57:03;5.00;99.90
36374;DHT22;22399;51.346;12.372;2024-03-08T07:59:34;5.10;99.90
36374;DHT22;22399;51.346;12.372;2024-03-08T08:02:03;5.50;99.90
36374;DHT22;22399;51.346;12.372;2024-03-08T08:04:32;5.70;99.90
36374;DHT22;22399;51.346;12.372;2024-03-08T08:07:00;5.90;99.90
36374;DHT22;22399;51.346;12.372;2024-03-08T08:09:28;6.00;99.90
36374;DHT22;22399;51.346;12.372;2024-03-08T08:12:01;6.00;99.90
36374;DHT22;22399;51.346;12.372;2024-03-08T08:14:30;6.10;99.90
36374;DHT22;22399;51.346;12.372;2024-03-08T08:16:58;6.10;99.90
36374;DHT22;22399;51.346;12.372;2024-03-08T08:19:31;6.40;99.90
36374;DHT22;22399;51.346;12.372;2024-03-08T08:22:00;6.70;99.90
36374;DHT22;22399;51.346;12.372;2024-03-08T08:24:28;7.20;99.90
36374;DHT22;22399;51.346;12.372;2024-03-08T08:26:56;7.30;99.90
36374;DHT22;22399;51.346;12.372;2024-03-08T08:29:24;7.40;99.90
36374;DHT22;22399;51.346;12.372;2024-03-08T08:31:52;7.50;99.90
36374;DHT22;22399;51.346;12.372;2024-03-08T08:34:21;8.00;99.90
36374;DHT22;22399;51.346;12.372;2024-03-08T08:36:52;8.00;99.90
36374;DHT22;22399;51.346;12.372;2024-03-08T08:39:21;7.70;99.90
36374;DHT22;22399;51.346;12.372;2024-03-08T08:41:49;7.80;99.90
36374;DHT22;22399;51.346;12.372;2024-03-08T08:44:19;7.70;99.90
36374;DHT22;22399;51.346;12.372;2024-03-08T08:46:48;7.50;99.90
36374;DHT22;22399;51.346;12.372;2024-03-08T08:49:21;7.50;99.90
36374;DHT22;22399;51.346;12.372;2024-03-08T08:51:52;8.10;99.90
36374;DHT22;22399;51.346;12.372;2024-03-08T08:54:24;8.20;99.90
36374;DHT22;22399;51.346;12.372;2024-03-08T08:56:54;8.20;99.90
36374;DHT22;22399;51.346;12.372;2024-03-08T08:59:23;8.10;99.90
36374;DHT22;22399;51.346;12.372;2024-03-08T09:01:52;8.20;99.90
36374;DHT22;22399;51.346;12.372;2024-03-08T09:04:21;8.30;99.90
36374;DHT22;22399;51.346;12.372;2024-03-08T09:06:49;8.40;99.90
36374;DHT22;22399;51.346;12.372;2024-03-08T09:09:19;8.70;99.90
36374;DHT22;22399;51.346;12.372;2024-03-08T09:11:49;8.80;99.90
36374;DHT22;22399;51.346;12.372;2024-03-08T09:14:17;8.80;99.90
36374;DHT22;22399;51.346;12.372;2024-03-08T09:16:47;8.90;99.90
36374;DHT22;22399;51.346;12.372;2024-03-08T09:19:15;9.10;99.90
36374;DHT22;22399;51.346;12.372;2024-03-08T09:21:44;9.10;99.90
36374;DHT22;22399;51.346;12.372;2024-03-08T09:24:12;9.20;99.90
36374;DHT22;22399;51.346;12.372;2024-03-08T09:26:41;9.10;99.90
36374;DHT22;22399;51.346;12.372;2024-03-08T09:29:10;8.90;99.90
36374;DHT22;22399;51.346;12.372;2024-03-08T09:31:38;8.80;99.90
36374;DHT22;22399;51.346;12.372;2024-03-08T09:34:07;8.80;99.90
36374;DHT22;22399;51.346;12.372;2024-03-08T09:36:40;8.70;99.90
36374;DHT22;22399;51.346;12.372;2024-03-08T09:39:09;8.90;99.90
36374;DHT22;22399;51.346;12.372;2024-03-08T09:41:44;9.00;99.90
36374;DHT22;22399;51.346;12.372;2024-03-08T09:44:14;9.20;99.90
36374;DHT22;22399;51.346;12.372;2024-03-08T09:46:43;9.40;99.90
36374;DHT22;22399;51.346;12.372;2024-03-08T09:49:14;9.70;99.90
36374;DHT22;22399;51.346;12.372;2024-03-08T09:51:42;9.70;99.90
36374;DHT22;22399;51.346;12.372;2024-03-08T09:54:10;9.80;99.90
36374;DHT22;22399;51.346;12.372;2024-03-08T09:56:48;9.50;99.90
36374;DHT22;22399;51.346;12.372;2024-03-08T09:59:18;9.60;99.90
36374;DHT22;22399;51.346;12.372;2024-03-08T10:02:04;9.40;99.90
36374;DHT22;22399;51.346;12.372;2024-03-08T10:04:33;9.40;99.90
36374;DHT22;22399;51.346;12.372;2024-03-08T10:07:01;9.80;99.90
36374;DHT22;22399;51.346;12.372;2024-03-08T10:09:30;9.90;99.90
36374;DHT22;22399;51.346;12.372;2024-03-08T10:11:59;10.00;99.90
36374;DHT22;22399;51.346;12.372;2024-03-08T10:14:27;10.00;99.90
36374;DHT22;22399;51.346;12.372;2024-03-08T10:16:57;10.00;99.90
36374;DHT22;22399;51.346;12.372;2024-03-08T10:19:27;10.10;99.90
36374;DHT22;22399;51.346;12.372;2024-03-08T10:21:57;10.30;99.90
36374;DHT22;22399;51.346;12.372;2024-03-08T10:24:26;10.40;99.90
36374;DHT22;22399;51.346;12.372;2024-03-08T10:26:59;10.40;99.90
36374;DHT22;22399;51.346;12.372;2024-03-08T10:29:31;10.60;99.90
36374;DHT22;22399;51.346;12.372;2024-03-08T10:31:59;11.00;99.90
36374;DHT22;22399;51.346;12.372;2024-03-08T10:34:29;10.90;99.90
36374;DHT22;22399;51.346;12.372;2024-03-08T10:37:03;10.80;99.90
36374;DHT22;22399;51.346;12.372;2024-03-08T10:39:36;10.40;99.90
36374;DHT22;22399;51.346;12.372;2024-03-08T10:42:09;10.50;99.90
36374;DHT22;22399;51.346;12.372;2024-03-08T10:44:48;10.40;99.90
36374;DHT22;22399;51.346;12.372;2024-03-08T10:47:20;10.90;99.90
36374;DHT22;22399;51.346;12.372;2024-03-08T10:49:54;11.20;99.90
36374;DHT22;22399;51.346;12.372;2024-03-08T10:52:24;11.00;99.90
36374;DHT22;22399;51.346;12.372;2024-03-08T10:54:52;11.10;99.90
36374;DHT22;22399;51.346;12.372;2024-03-08T10:57:24;11.10;99.90
36374;DHT22;22399;51.346;12.372;2024-03-08T10:59:55;11.00;99.90
36374;DHT22;22399;51.346;12.372;2024-03-08T11:02:26;10.80;99.90
36374;DHT22;22399;51.346;12.372;2024-03-08T11:04:55;10.70;99.90
36374;DHT22;22399;51.346;12.372;2024-03-08T11:07:25;10.50;99.90
36374;DHT22;22399;51.346;12.372;2024-03-08T11:09:56;10.40;99.90
36374;DHT22;22399;51.346;12.372;2024-03-08T11:12:26;10.50;99.90
36374;DHT22;22399;51.346;12.372;2024-03-08T11:15:00;10.70;99.90
36374;DHT22;22399;51.346;12.372;2024-03-08T11:17:44;10.30;99.70
36374;DHT22;22399;51.346;12.372;2024-03-08T11:20:14;10.60;99.90
36374;DHT22;22399;51.346;12.372;2024-03-08T11:22:48;10.60;99.50
36374;DHT22;22399;51.346;12.372;2024-03-08T11:25:37;10.50;98.80
36374;DHT22;22399;51.346;12.372;2024-03-08T11:28:13;10.60;98.70
36374;DHT22;22399;51.346;12.372;2024-03-08T11:30:46;10.70;98.20
36374;DHT22;22399;51.346;12.372;2024-03-08T11:33:15;10.50;98.20
36374;DHT22;22399;51.346;12.372;2024-03-08T11:35:44;10.90;98.60
36374;DHT22;22399;51.346;12.372;2024-03-08T11:38:13;11.30;98.00
36374;DHT22;22399;51.346;12.372;2024-03-08T11:40:46;11.10;97.40
36374;DHT22;22399;51.346;12.372;2024-03-08T11:43:18;11.00;97.20
36374;DHT22;22399;51.346;12.372;2024-03-08T11:45:46;10.70;96.90
36374;DHT22;22399;51.346;12.372;2024-03-08T11:48:15;10.60;96.80
36374;DHT22;22399;51.346;12.372;2024-03-08T11:50:43;10.50;96.70
36374;DHT22;22399;51.346;12.372;2024-03-08T11:53:11;10.70;97.10
36374;DHT22;22399;51.346;12.372;2024-03-08T11:55:40;11.10;96.80
36374;DHT22;22399;51.346;12.372;2024-03-08T11:58:09;11.10;96.80
36374;DHT22;22399;51.346;12.372;2024-03-08T12:00:41;11.20;95.70
36374;DHT22;22399;51.346;12.372;2024-03-08T12:03:09;11.30;95.20
36374;DHT22;22399;51.346;12.372;2024-03-08T12:05:37;11.30;94.80
36374;DHT22;22399;51.346;12.372;2024-03-08T12:08:05;11.40;94.80
36374;DHT22;22399;51.346;12.372;2024-03-08T12:10:35;11.30;94.70
36374;DHT22;22399;51.346;12.372;2024-03-08T12:13:03;10.90;94.60
36374;DHT22;22399;51.346;12.372;2024-03-08T12:15:41;10.80;94.90
36374;DHT22;22399;51.346;12.372;2024-03-08T12:18:10;10.80;95.10
36374;DHT22;22399;51.346;12.372;2024-03-08T12:20:40;10.90;94.90
36374;DHT22;22399;51.346;12.372;2024-03-08T12:23:14;11.00;94.70
36374;DHT22;22399;51.346;12.372;2024-03-08T12:25:43;11.10;94.60
36374;DHT22;22399;51.346;12.372;2024-03-08T12:28:12;11.10;94.40
36374;DHT22;22399;51.346;12.372;2024-03-08T12:30:50;11.20;94.00
36374;DHT22;22399;51.346;12.372;2024-03-08T12:33:20;11.10;93.80
36374;DHT22;22399;51.346;12.372;2024-03-08T12:35:53;11.40;93.90
36374;DHT22;22399;51.346;12.372;2024-03-08T12:41:17;11.70;93.30
36374;DHT22;22399;51.346;12.372;2024-03-08T12:43:46;11.50;93.50
36374;DHT22;22399;51.346;12.372;2024-03-08T12:46:17;11.60;93.90
36374;DHT22;22399;51.346;12.372;2024-03-08T12:48:47;11.70;93.60
36374;DHT22;22399;51.346;12.372;2024-03-08T12:51:16;11.60;93.40
36374;DHT22;22399;51.346;12.372;2024-03-08T12:53:45;11.50;93.40
36374;DHT22;22399;51.346;12.372;2024-03-08T12:56:20;11.40;93.40
36374;DHT22;22399;51.346;12.372;2024-03-08T12:58:56;11.40;93.40
36374;DHT22;22399;51.346;12.372;2024-03-08T13:01:26;11.40;93.20
36374;DHT22;22399;51.346;12.372;2024-03-08T13:03:54;11.50;93.10
36374;DHT22;22399;51.346;12.372;2024-03-08T13:06:23;11.60;93.10
36374;DHT22;22399;51.346;12.372;2024-03-08T13:08:52;12.00;93.00
36374;DHT22;22399;51.346;12.372;2024-03-08T13:11:20;11.90;92.30
36374;DHT22;22399;51.346;12.372;2024-03-08T13:13:50;12.00;92.50
36374;DHT22;22399;51.346;12.372;2024-03-08T13:16:19;12.00;92.20
36374;DHT22;22399;51.346;12.372;2024-03-08T13:18:49;12.00;92.20
36374;DHT22;22399;51.346;12.372;2024-03-08T13:21:20;11.70;92.10
36374;DHT22;22399;51.346;12.372;2024-03-08T13:23:51;11.70;91.90
36374;DHT22;22399;51.346;12.372;2024-03-08T13:26:20;11.60;91.90
36374;DHT22;22399;51.346;12.372;2024-03-08T13:28:48;11.60;91.80
36374;DHT22;22399;51.346;12.372;2024-03-08T13:31:20;11.70;91.70
36374;DHT22;22399;51.346;12.372;2024-03-08T13:33:50;11.50;91.30
36374;DHT22;22399;51.346;12.372;2024-03-08T13:36:24;11.40;91.60
36374;DHT22;22399;51.346;12.372;2024-03-08T13:38:56;11.60;91.10
36374;DHT22;22399;51.346;12.372;2024-03-08T13:41:26;11.60;90.90
36374;DHT22;22399;51.346;12.372;2024-03-08T13:43:58;11.60;90.90
36374;DHT22;22399;51.346;12.372;2024-03-08T13:46:26;11.70;91.00
36374;DHT22;22399;51.346;12.372;2024-03-08T13:48:56;11.80;90.80
36374;DHT22;22399;51.346;12.372;2024-03-08T13:51:28;12.10;90.60
36374;DHT22;22399;51.346;12.372;2024-03-08T13:53:57;11.90;90.20
36374;DHT22;22399;51.346;12.372;2024-03-08T13:56:27;11.80;90.30
36374;DHT22;22399;51.346;12.372;2024-03-08T13:58:57;11.80;90.10
36374;DHT22;22399;51.346;12.372;2024-03-08T14:01:25;11.70;90.10
36374;DHT22;22399;51.346;12.372;2024-03-08T14:03:54;11.70;90.30
36374;DHT22;22399;51.346;12.372;2024-03-08T14:06:24;11.50;89.70
36374;DHT22;22399;51.346;12.372;2024-03-08T14:08:57;11.50;89.80
36374;DHT22;22399;51.346;12.372;2024-03-08T14:11:25;11.40;89.50
36374;DHT22;22399;51.346;12.372;2024-03-08T14:13:53;11.70;88.90
36374;DHT22;22399;51.346;12.372;2024-03-08T14:16:21;11.70;88.70
36374;DHT22;22399;51.346;12.372;2024-03-08T14:18:49;11.70;88.40
36374;DHT22;22399;51.346;12.372;2024-03-08T14:21:17;11.80;88.10
36374;DHT22;22399;51.346;12.372;2024-03-08T14:23:47;12.00;88.40
36374;DHT22;22399;51.346;12.372;2024-03-08T14:26:15;11.90;87.30
36374;DHT22;22399;51.346;12.372;2024-03-08T14:28:44;12.00;87.30
36374;DHT22;22399;51.346;12.372;2024-03-08T14:31:13;11.90;87.00
36374;DHT22;22399;51.346;12.372;2024-03-08T14:33:45;11.80;87.10
36374;DHT22;22399;51.346;12.372;2024-03-08T14:36:15;11.60;87.00
36374;DHT22;22399;51.346;12.372;2024-03-08T14:38:44;11.70;87.10
36374;DHT22;22399;51.346;12.372;2024-03-08T14:41:15;11.90;86.80
36374;DHT22;22399;51.346;12.372;2024-03-08T14:43:43;11.90;86.70
36374;DHT22;22399;51.346;12.372;2024-03-08T14:46:12;12.00;86.40
36374;DHT22;22399;51.346;12.372;2024-03-08T14:48:44;12.20;86.10
36374;DHT22;22399;51.346;12.372;2024-03-08T14:51:17;12.30;85.80
36374;DHT22;22399;51.346;12.372;2024-03-08T14:53:48;12.40;85.40
36374;DHT22;22399;51.346;12.372;2024-03-08T14:56:18;12.40;85.00
36374;DHT22;22399;51.346;12.372;2024-03-08T14:58:46;12.10;85.20
36374;DHT22;22399;51.346;12.372;2024-03-08T15:01:17;11.50;86.80
36374;DHT22;22399;51.346;12.372;2024-03-08T15:03:49;11.10;87.90
36374;DHT22;22399;51.346;12.372;2024-03-08T15:06:17;10.80;88.70
36374;DHT22;22399;51.346;12.372;2024-03-08T15:08:48;10.60;89.30
36374;DHT22;22399;51.346;12.372;2024-03-08T15:11:18;10.50;89.90
36374;DHT22;22399;51.346;12.372;2024-03-08T15:13:48;10.30;90.10
36374;DHT22;22399;51.346;12.372;2024-03-08T15:16:20;10.10;90.00
36374;DHT22;22399;51.346;12.372;2024-03-08T15:18:50;10.00;90.00
36374;DHT22;22399;51.346;12.372;2024-03-08T15:21:20;9.90;90.10
36374;DHT22;22399;51.346;12.372;2024-03-08T15:23:53;10.00;90.10
36374;DHT22;22399;51.346;12.372;2024-03-08T15:26:23;9.90;90.00
36374;DHT22;22399;51.346;12.372;2024-03-08T15:28:52;9.80;90.00
36374;DHT22;22399;51.346;12.372;2024-03-08T15:31:23;9.60;90.00
36374;DHT22;22399;51.346;12.372;2024-03-08T15:33:53;9.70;90.00
36374;DHT22;22399;51.346;12.372;2024-03-08T15:36:28;9.60;90.00
36374;DHT22;22399;51.346;12.372;2024-03-08T15:38:57;9.50;89.90
36374;DHT22;22399;51.346;12.372;2024-03-08T15:41:27;9.50;89.70
36374;DHT22;22399;51.346;12.372;2024-03-08T15:43:56;9.50;89.80